Time;durP1;ratioP1;P1;durP2;ratioP2;P2;SDS_P1;SDS_P2;PMS_P1;PMS_P2;Temp;Humidity;BMP_temperature;BMP_pressure;BME280_temperature;BME280_humidity;BME280_pressure;Samples;Min_cycle;Max_cycle;Signal;HPM_P1;HPM_P2
2023/03/20 00:00:07;;;;;;;;;34.25;27.75;;;;;;;;6336028;22;46301;-81
2023/03/20 00:02:32;;;;;;;;;42.50;30.50;;;;;;;;6336057;22;45287;-81
2023/03/20 00:04:57;;;;;;;;;41.00;33.67;;;;;;;;6336148;22;45239;-81
2023/03/20 00:07:23;;;;;;;;;31.67;25.00;;;;;;;;6336109;22;45209;-81
2023/03/20 00:09:48;;;;;;;;;36.00;27.00;;;;;;;;6335833;22;46218;-81
2023/03/20 00:12:20;;;;;;;;;32.33;29.33;;;;;;;;6334089;22;45287;-81
2023/03/20 00:14:46;;;;;;;;;39.00;29.25;;;;;;;;6336522;22;45549;-81
2023/03/20 00:17:16;;;;;;;;;31.33;28.33;;;;;;;;6336144;22;45505;-81
2023/03/20 00:19:42;;;;;;;;;34.25;25.50;;;;;;;;6334407;22;46973;-81
2023/03/20 00:22:07;;;;;;;;;31.33;23.00;;;;;;;;6336429;22;45525;-81
2023/03/20 00:24:32;;;;;;;;;29.67;26.33;;;;;;;;6329265;22;45518;-81
2023/03/20 00:26:57;;;;;;;;;34.00;25.33;;;;;;;;6335440;22;45269;-81
2023/03/20 00:29:24;;;;;;;;;37.00;29.67;;;;;;;;6336398;22;45375;-81
2023/03/20 00:31:50;;;;;;;;;34.75;24.75;;;;;;;;6336326;22;45355;-81
2023/03/20 00:34:17;;;;;;;;;28.25;24.50;;;;;;;;6336345;22;45371;-81
2023/03/20 00:36:42;;;;;;;;;23.50;17.75;;;;;;;;6336222;22;45305;-82
2023/03/20 00:39:07;;;;;;;;;21.33;18.67;;;;;;;;6336468;22;46148;-82
2023/03/20 00:41:35;;;;;;;;;23.75;16.00;;;;;;;;6335597;22;45420;-81
2023/03/20 00:44:05;;;;;;;;;26.25;19.50;;;;;;;;6336143;22;45238;-80
2023/03/20 00:46:35;;;;;;;;;17.00;13.00;;;;;;;;6336123;22;45352;-81
2023/03/20 00:49:00;;;;;;;;;22.00;18.75;;;;;;;;6335980;22;46256;-82
2023/03/20 00:51:25;;;;;;;;;22.25;16.75;;;;;;;;6335840;22;45512;-82
2023/03/20 00:53:51;;;;;;;;;18.67;14.33;;;;;;;;6333651;22;45360;-81
2023/03/20 00:56:39;;;;;;;;;18.33;13.67;;;;;;;;6333638;22;45524;-81
2023/03/20 00:59:05;;;;;;;;;17.00;15.50;;;;;;;;6335509;22;45606;-81
2023/03/20 01:01:30;;;;;;;;;18.75;15.50;;;;;;;;6334049;22;45386;-81
2023/03/20 01:03:56;;;;;;;;;21.25;15.00;;;;;;;;6336141;22;45304;-81
2023/03/20 01:06:21;;;;;;;;;23.25;14.75;;;;;;;;6335648;22;45461;-81
2023/03/20 01:08:47;;;;;;;;;17.33;14.33;;;;;;;;6335329;22;46171;-81
2023/03/20 01:11:21;;;;;;;;;26.75;15.00;;;;;;;;6335294;22;45270;-81
2023/03/20 01:13:46;;;;;;;;;20.00;16.00;;;;;;;;6336449;22;45347;-80
2023/03/20 01:16:24;;;;;;;;;21.33;18.00;;;;;;;;6335857;22;45494;-81
2023/03/20 01:18:49;;;;;;;;;17.00;12.50;;;;;;;;6335575;22;47029;-81
2023/03/20 01:21:15;;;;;;;;;17.25;15.00;;;;;;;;6335982;22;45162;-81
2023/03/20 01:23:40;;;;;;;;;27.75;16.00;;;;;;;;6336081;22;45203;-81
2023/03/20 01:26:26;;;;;;;;;18.67;15.00;;;;;;;;6335213;22;45236;-81
2023/03/20 01:28:51;;;;;;;;;23.75;19.00;;;;;;;;6332634;22;47582;-81
2023/03/20 01:31:16;;;;;;;;;22.00;15.00;;;;;;;;6335238;22;45278;-81
2023/03/20 01:33:42;;;;;;;;;19.00;15.67;;;;;;;;6333535;22;45210;-81
2023/03/20 01:36:09;;;;;;;;;28.67;19.33;;;;;;;;6333813;22;45195;-81
2023/03/20 01:38:34;;;;;;;;;19.50;14.75;;;;;;;;6334856;22;47535;-80
2023/03/20 01:41:13;;;;;;;;;22.00;17.50;;;;;;;;6335738;22;45319;-81
2023/03/20 01:43:39;;;;;;;;;22.25;18.50;;;;;;;;6335400;22;45167;-81
2023/03/20 01:46:10;;;;;;;;;16.00;15.50;;;;;;;;6335995;22;45154;-81
2023/03/20 01:48:54;;;;;;;;;23.50;18.75;;;;;;;;6336425;22;45364;-81
2023/03/20 01:51:21;;;;;;;;;18.25;18.25;;;;;;;;6336746;22;45772;-81
2023/03/20 01:53:50;;;;;;;;;16.50;15.75;;;;;;;;6336118;22;45288;-81
2023/03/20 01:56:16;;;;;;;;;20.50;14.75;;;;;;;;6336953;22;45283;-81
2023/03/20 01:58:45;;;;;;;;;19.75;16.00;;;;;;;;6336622;22;45236;-81
2023/03/20 02:01:12;;;;;;;;;25.75;17.25;;;;;;;;6337234;22;45296;-81
2023/03/20 02:03:37;;;;;;;;;17.50;11.75;;;;;;;;6335474;22;45366;-81
2023/03/20 02:06:04;;;;;;;;;19.25;16.75;;;;;;;;6337278;22;45424;-81
2023/03/20 02:08:31;;;;;;;;;18.25;9.75;;;;;;;;6336163;22;47155;-81
2023/03/20 02:10:58;;;;;;;;;16.50;15.25;;;;;;;;6337150;22;45721;-82
2023/03/20 02:13:25;;;;;;;;;21.50;16.50;;;;;;;;6329222;22;45291;-81
2023/03/20 02:16:10;;;;;;;;;19.00;15.25;;;;;;;;6336803;22;45348;-81
2023/03/20 02:18:35;;;;;;;;;17.25;12.25;;;;;;;;6335642;22;46572;-81
2023/03/20 02:21:01;;;;;;;;;23.00;15.67;;;;;;;;6336933;22;45376;-81
2023/03/20 02:23:43;;;;;;;;;18.67;14.67;;;;;;;;6336848;22;45301;-81
2023/03/20 02:26:17;;;;;;;;;19.50;14.75;;;;;;;;6337190;22;45332;-81
2023/03/20 02:29:08;;;;;;;;;17.25;15.00;;;;;;;;6336380;22;46398;-81
2023/03/20 02:31:53;;;;;;;;;21.50;15.25;;;;;;;;6336837;22;45194;-82
2023/03/20 02:34:37;;;;;;;;;21.25;13.00;;;;;;;;6336749;22;45455;-81
2023/03/20 02:37:21;;;;;;;;;16.75;15.25;;;;;;;;6334728;22;45194;-81
2023/03/20 02:40:05;;;;;;;;;22.50;15.00;;;;;;;;6336273;22;47133;-81
2023/03/20 02:42:48;;;;;;;;;19.25;13.25;;;;;;;;6336994;22;45284;-81
2023/03/20 02:45:17;;;;;;;;;18.75;14.50;;;;;;;;6337195;22;45316;-81
2023/03/20 02:48:09;;;;;;;;;18.50;13.25;;;;;;;;6336983;22;45470;-81
2023/03/20 02:50:49;;;;;;;;;22.75;15.25;;;;;;;;6203869;22;46120;-80
2023/03/20 02:53:15;;;;;;;;;15.50;14.25;;;;;;;;6209767;22;45763;-79
2023/03/20 02:55:44;;;;;;;;;21.67;16.00;;;;;;;;6210132;22;45360;-79
2023/03/20 02:58:21;;;;;;;;;20.75;16.75;;;;;;;;6184212;22;45516;-79
2023/03/20 03:00:50;;;;;;;;;23.00;16.00;;;;;;;;6209341;22;46583;-80
2023/03/20 03:03:17;;;;;;;;;20.00;16.50;;;;;;;;6209587;22;45240;-79
2023/03/20 03:05:47;;;;;;;;;2.00;1.00;;;;;;;;6209341;22;45295;-80
2023/03/20 03:08:14;;;;;;;;;21.75;16.75;;;;;;;;6209675;22;45450;-80
2023/03/20 03:10:44;;;;;;;;;20.50;15.00;;;;;;;;6209049;22;47675;-79
2023/03/20 03:13:15;;;;;;;;;20.75;16.75;;;;;;;;6184136;22;45867;-79
2023/03/20 03:15:44;;;;;;;;;18.00;13.25;;;;;;;;6209888;22;45344;-80
2023/03/20 03:18:20;;;;;;;;;15.50;12.00;;;;;;;;6209623;22;45474;-80
2023/03/20 03:20:47;;;;;;;;;28.00;18.00;;;;;;;;6209261;22;46495;-80
2023/03/20 03:23:19;;;;;;;;;26.75;16.50;;;;;;;;6184161;22;45694;-80
2023/03/20 03:25:45;;;;;;;;;17.75;16.75;;;;;;;;6210054;22;45270;-80
2023/03/20 03:28:36;;;;;;;;;23.50;17.75;;;;;;;;6315106;22;45370;-80
2023/03/20 03:31:02;;;;;;;;;20.75;16.50;;;;;;;;6321313;22;47096;-82
2023/03/20 03:33:29;;;;;;;;;17.50;15.75;;;;;;;;6336621;22;46181;-80
2023/03/20 03:35:59;;;;;;;;;22.00;17.00;;;;;;;;6336067;22;45250;-80
2023/03/20 03:38:25;;;;;;;;;18.00;15.00;;;;;;;;6334907;22;45206;-80
2023/03/20 03:40:53;;;;;;;;;20.25;13.75;;;;;;;;6336384;22;45532;-80
2023/03/20 03:43:39;;;;;;;;;17.00;16.25;;;;;;;;6336131;22;45293;-80
2023/03/20 03:46:15;;;;;;;;;17.75;15.75;;;;;;;;6336381;22;45243;-80
2023/03/20 03:48:47;;;;;;;;;20.50;15.00;;;;;;;;6336338;22;45307;-80
2023/03/20 03:51:15;;;;;;;;;22.75;18.00;;;;;;;;6336035;22;46510;-80
2023/03/20 03:53:47;;;;;;;;;15.75;15.00;;;;;;;;6336459;22;45189;-80
2023/03/20 03:56:13;;;;;;;;;21.00;13.25;;;;;;;;6332155;22;45275;-80
2023/03/20 03:58:44;;;;;;;;;23.50;15.00;;;;;;;;6336676;22;45455;-79
2023/03/20 04:01:11;;;;;;;;;19.25;15.25;;;;;;;;6336486;22;46174;-80
2023/03/20 04:03:40;;;;;;;;;17.00;13.75;;;;;;;;6336261;22;45256;-79
2023/03/20 04:06:08;;;;;;;;;14.50;11.75;;;;;;;;6334741;22;45253;-80
2023/03/20 04:08:34;;;;;;;;;20.75;14.50;;;;;;;;6336252;22;45187;-80
2023/03/20 04:10:59;;;;;;;;;19.00;15.00;;;;;;;;6335860;22;46552;-79
2023/03/20 04:13:24;;;;;;;;;17.00;15.00;;;;;;;;6336663;22;45204;-80
2023/03/20 04:15:50;;;;;;;;;17.75;14.00;;;;;;;;6336394;22;45255;-79
2023/03/20 04:18:16;;;;;;;;;16.75;11.25;;;;;;;;6336243;22;45165;-80
2023/03/20 04:20:42;;;;;;;;;17.00;15.00;;;;;;;;6335982;22;47056;-79
2023/03/20 04:23:07;;;;;;;;;19.50;14.50;;;;;;;;6336569;22;45220;-79
2023/03/20 04:25:33;;;;;;;;;21.75;18.00;;;;;;;;6336074;22;45397;-79
2023/03/20 04:27:58;;;;;;;;;18.25;12.00;;;;;;;;6336132;22;45363;-79
2023/03/20 04:30:23;;;;;;;;;19.33;15.00;;;;;;;;6335796;22;46062;-80
2023/03/20 04:32:48;;;;;;;;;22.67;18.00;;;;;;;;6335205;22;45333;-80
2023/03/20 04:35:14;;;;;;;;;16.00;11.67;;;;;;;;6336145;22;45324;-82
2023/03/20 04:37:39;;;;;;;;;22.25;15.25;;;;;;;;6335951;22;45282;-79
2023/03/20 04:40:04;;;;;;;;;19.00;15.00;;;;;;;;6335722;22;47004;-80
2023/03/20 04:42:29;;;;;;;;;17.50;11.00;;;;;;;;6335755;22;45639;-79
2023/03/20 04:44:55;;;;;;;;;15.00;11.00;;;;;;;;6336536;22;45411;-80
2023/03/20 04:47:20;;;;;;;;;19.67;12.00;;;;;;;;6335981;22;45385;-80
2023/03/20 04:49:45;;;;;;;;;19.00;14.33;;;;;;;;6335818;22;47038;-80
2023/03/20 04:52:10;;;;;;;;;15.33;11.00;;;;;;;;6336393;22;45268;-80
2023/03/20 04:54:35;;;;;;;;;23.33;14.00;;;;;;;;6336225;22;45294;-80
2023/03/20 04:57:01;;;;;;;;;17.33;10.33;;;;;;;;6335822;22;45355;-80
2023/03/20 04:59:26;;;;;;;;;14.67;14.00;;;;;;;;6336098;22;45512;-80
2023/03/20 05:01:51;;;;;;;;;22.00;12.00;;;;;;;;6335847;22;45354;-80
2023/03/20 05:04:16;;;;;;;;;12.67;8.33;;;;;;;;6336120;22;45260;-80
2023/03/20 05:06:42;;;;;;;;;15.75;13.75;;;;;;;;6336349;22;45426;-80
2023/03/20 05:09:08;;;;;;;;;15.00;11.00;;;;;;;;6335691;22;47793;-80
2023/03/20 05:11:33;;;;;;;;;19.75;15.75;;;;;;;;6336057;22;45233;-80
2023/03/20 05:13:58;;;;;;;;;16.67;12.00;;;;;;;;6335828;22;45284;-79
2023/03/20 05:16:23;;;;;;;;;20.67;15.00;;;;;;;;6336045;22;45187;-80
2023/03/20 05:18:48;;;;;;;;;16.33;14.67;;;;;;;;6330888;22;45335;-79
2023/03/20 05:21:14;;;;;;;;;19.67;15.00;;;;;;;;6336124;22;45241;-79
2023/03/20 05:23:39;;;;;;;;;14.50;12.00;;;;;;;;6336297;22;45268;-80
2023/03/20 05:26:05;;;;;;;;;21.67;13.33;;;;;;;;6337282;22;45275;-79
2023/03/20 05:28:30;;;;;;;;;13.75;12.00;;;;;;;;6336678;22;45359;-79
2023/03/20 05:30:55;;;;;;;;;12.00;12.00;;;;;;;;6336921;22;45223;-80
2023/03/20 05:33:21;;;;;;;;;14.33;12.67;;;;;;;;6336871;22;45240;-79
2023/03/20 05:35:46;;;;;;;;;18.25;13.25;;;;;;;;6336918;22;45220;-79
2023/03/20 05:38:12;;;;;;;;;20.25;12.25;;;;;;;;6336688;22;46480;-79
2023/03/20 05:40:37;;;;;;;;;15.00;12.50;;;;;;;;6337235;22;45288;-79
2023/03/20 05:43:02;;;;;;;;;12.00;12.00;;;;;;;;6337192;22;45254;-79
2023/03/20 05:45:28;;;;;;;;;18.67;12.67;;;;;;;;6334648;22;45611;-79
2023/03/20 05:47:53;;;;;;;;;11.50;9.75;;;;;;;;6337016;22;45347;-80
2023/03/20 05:50:18;;;;;;;;;15.67;12.67;;;;;;;;6336841;22;45295;-80
2023/03/20 05:52:47;;;;;;;;;14.00;9.67;;;;;;;;6336667;22;45272;-80
2023/03/20 05:55:12;;;;;;;;;17.75;12.25;;;;;;;;6336841;22;45486;-80
2023/03/20 05:57:37;;;;;;;;;15.00;10.25;;;;;;;;6336671;22;46051;-80
2023/03/20 06:00:04;;;;;;;;;10.33;9.00;;;;;;;;6336807;22;45308;-80
2023/03/20 06:02:29;;;;;;;;;15.00;12.00;;;;;;;;6335425;22;45322;-80
2023/03/20 06:04:55;;;;;;;;;11.75;10.50;;;;;;;;6337246;22;45232;-80
2023/03/20 06:07:20;;;;;;;;;14.50;12.00;;;;;;;;6336649;22;46346;-80
2023/03/20 06:09:45;;;;;;;;;13.75;12.50;;;;;;;;6337116;22;45106;-80
2023/03/20 06:12:11;;;;;;;;;12.00;8.00;;;;;;;;6337343;22;45207;-80
2023/03/20 06:14:36;;;;;;;;;13.00;11.50;;;;;;;;6336260;22;45418;-80
2023/03/20 06:17:01;;;;;;;;;16.00;10.00;;;;;;;;6336966;22;45480;-80
2023/03/20 06:19:27;;;;;;;;;11.33;8.33;;;;;;;;6336936;22;45197;-80
2023/03/20 06:21:52;;;;;;;;;9.00;8.00;;;;;;;;6336638;22;45336;-80
2023/03/20 06:24:17;;;;;;;;;13.33;7.33;;;;;;;;6337169;22;45403;-80
2023/03/20 06:26:42;;;;;;;;;8.00;6.00;;;;;;;;6336208;22;45381;-80
2023/03/20 06:29:07;;;;;;;;;6.67;4.67;;;;;;;;6336642;22;45274;-80
2023/03/20 06:31:33;;;;;;;;;6.00;6.00;;;;;;;;6336658;22;45438;-80
2023/03/20 06:33:58;;;;;;;;;9.00;6.00;;;;;;;;6336714;22;45261;-80
2023/03/20 06:36:23;;;;;;;;;7.33;3.33;;;;;;;;6336495;22;46317;-80
2023/03/20 06:38:49;;;;;;;;;5.50;2.00;;;;;;;;6336699;22;45380;-80
2023/03/20 06:41:14;;;;;;;;;6.50;4.50;;;;;;;;6336673;22;45334;-80
2023/03/20 06:43:41;;;;;;;;;1.25;1.00;;;;;;;;6336318;22;45252;-80
2023/03/20 06:46:07;;;;;;;;;5.75;2.00;;;;;;;;6336783;22;46376;-80
2023/03/20 06:48:32;;;;;;;;;4.00;1.75;;;;;;;;6337075;22;45335;-80
2023/03/20 06:50:57;;;;;;;;;4.00;2.00;;;;;;;;6337068;22;45290;-80
2023/03/20 06:53:23;;;;;;;;;4.67;1.00;;;;;;;;6336801;22;45391;-80
2023/03/20 06:55:48;;;;;;;;;4.00;2.00;;;;;;;;6336804;22;46337;-80
2023/03/20 06:58:14;;;;;;;;;5.00;3.00;;;;;;;;6336274;22;45363;-80
2023/03/20 07:00:39;;;;;;;;;2.50;2.50;;;;;;;;6336959;22;45285;-80
2023/03/20 07:03:04;;;;;;;;;5.67;5.00;;;;;;;;6337357;22;45284;-81
2023/03/20 07:05:29;;;;;;;;;8.00;2.00;;;;;;;;6336192;22;45220;-80
2023/03/20 07:07:55;;;;;;;;;4.75;2.00;;;;;;;;6336228;22;45364;-80
2023/03/20 07:10:20;;;;;;;;;1.67;0.67;;;;;;;;6336950;22;45351;-80
2023/03/20 07:12:45;;;;;;;;;1.33;1.33;;;;;;;;6336517;22;45373;-80
2023/03/20 07:15:11;;;;;;;;;2.00;2.00;;;;;;;;6336252;22;46996;-80
2023/03/20 07:17:36;;;;;;;;;4.00;1.00;;;;;;;;6336271;22;45229;-80
2023/03/20 07:20:02;;;;;;;;;1.67;1.00;;;;;;;;6336462;22;45279;-80
2023/03/20 07:22:28;;;;;;;;;1.00;1.00;;;;;;;;6329219;22;45421;-80
2023/03/20 07:24:53;;;;;;;;;5.00;1.00;;;;;;;;6336063;22;46409;-80
2023/03/20 07:27:20;;;;;;;;;2.00;2.00;;;;;;;;6336435;22;45264;-84
2023/03/20 07:29:45;;;;;;;;;1.00;1.00;;;;;;;;6336818;22;45286;-83
2023/03/20 07:32:10;;;;;;;;;1.00;1.00;;;;;;;;6336892;22;45240;-82
2023/03/20 07:34:35;;;;;;;;;1.33;1.33;;;;;;;;6336596;22;45516;-81
2023/03/20 07:37:01;;;;;;;;;1.00;1.00;;;;;;;;6336756;22;45347;-82
2023/03/20 07:39:26;;;;;;;;;1.00;1.00;;;;;;;;6334988;22;45276;-84
2023/03/20 07:41:51;;;;;;;;;3.33;1.00;;;;;;;;6337513;22;45202;-83
2023/03/20 07:44:18;;;;;;;;;1.00;1.00;;;;;;;;6334360;22;47271;-84
2023/03/20 07:46:44;;;;;;;;;2.00;2.00;;;;;;;;6335733;22;45629;-83
2023/03/20 07:49:10;;;;;;;;;3.25;1.75;;;;;;;;6336559;22;45243;-82
2023/03/20 07:51:35;;;;;;;;;1.00;1.00;;;;;;;;6336646;22;45221;-82
2023/03/20 07:54:00;;;;;;;;;1.50;1.50;;;;;;;;6288035;22;45899;-84
2023/03/20 07:56:25;;;;;;;;;1.00;1.00;;;;;;;;6330700;22;46097;-85
2023/03/20 07:58:51;;;;;;;;;4.00;2.00;;;;;;;;6332626;22;45420;-86
2023/03/20 08:01:16;;;;;;;;;1.67;1.33;;;;;;;;6336817;22;45292;-86
2023/03/20 08:03:41;;;;;;;;;5.00;3.00;;;;;;;;6336366;22;46439;-85
2023/03/20 08:06:08;;;;;;;;;4.00;2.33;;;;;;;;6334999;22;45249;-85
2023/03/20 08:08:34;;;;;;;;;2.00;1.00;;;;;;;;6336567;22;45418;-85
2023/03/20 08:10:59;;;;;;;;;1.00;1.00;;;;;;;;6335761;22;45418;-85
2023/03/20 08:13:24;;;;;;;;;5.50;3.50;;;;;;;;6334938;22;48004;-87
2023/03/20 08:15:50;;;;;;;;;6.33;2.00;;;;;;;;6334991;22;45304;-85
2023/03/20 08:18:15;;;;;;;;;3.00;1.25;;;;;;;;6336250;22;45284;-85
2023/03/20 08:20:41;;;;;;;;;3.00;1.75;;;;;;;;6336576;22;45274;-85
2023/03/20 08:23:06;;;;;;;;;2.67;1.00;;;;;;;;6336694;22;46314;-85
2023/03/20 08:25:32;;;;;;;;;4.00;0.25;;;;;;;;6335819;22;45404;-85
2023/03/20 08:27:58;;;;;;;;;2.00;2.00;;;;;;;;6336143;22;45343;-85
2023/03/20 08:30:24;;;;;;;;;5.75;1.50;;;;;;;;6336848;22;45294;-85
2023/03/20 08:32:49;;;;;;;;;1.75;1.75;;;;;;;;6335643;22;45254;-85
2023/03/20 08:35:14;;;;;;;;;1.50;1.25;;;;;;;;6336895;22;45264;-85
2023/03/20 08:37:39;;;;;;;;;2.00;2.00;;;;;;;;6334625;22;45295;-85
2023/03/20 08:40:05;;;;;;;;;2.00;1.00;;;;;;;;6335663;22;45456;-86
2023/03/20 08:42:30;;;;;;;;;3.00;2.00;;;;;;;;6335688;22;45921;-84
2023/03/20 08:44:55;;;;;;;;;3.00;1.00;;;;;;;;6334405;22;45255;-85
2023/03/20 08:47:21;;;;;;;;;1.33;1.33;;;;;;;;6336595;22;45248;-85
2023/03/20 08:49:46;;;;;;;;;6.00;2.00;;;;;;;;6336026;22;45372;-84
2023/03/20 08:52:12;;;;;;;;;5.00;1.00;;;;;;;;6335688;22;46357;-86
2023/03/20 08:54:37;;;;;;;;;3.00;2.00;;;;;;;;6335411;22;45225;-85
2023/03/20 08:57:04;;;;;;;;;7.75;1.25;;;;;;;;6335881;22;45290;-85
2023/03/20 08:59:30;;;;;;;;;1.67;1.67;;;;;;;;6335844;22;45498;-85
2023/03/20 09:01:55;;;;;;;;;1.00;1.00;;;;;;;;6335916;22;45983;-85
2023/03/20 09:04:20;;;;;;;;;1.00;1.00;;;;;;;;6336041;22;45267;-84
2023/03/20 09:06:45;;;;;;;;;2.25;2.00;;;;;;;;6335737;22;45260;-84
2023/03/20 09:09:14;;;;;;;;;2.00;2.00;;;;;;;;6334132;22;45377;-85
2023/03/20 09:11:39;;;;;;;;;2.00;2.00;;;;;;;;6335533;22;45605;-85
2023/03/20 09:14:05;;;;;;;;;1.75;1.00;;;;;;;;6335278;22;45436;-84
2023/03/20 09:16:30;;;;;;;;;1.67;1.00;;;;;;;;6335812;22;45158;-84
2023/03/20 09:18:55;;;;;;;;;0.33;0.33;;;;;;;;6336116;22;45288;-85
2023/03/20 09:21:20;;;;;;;;;3.75;2.25;;;;;;;;6336117;22;45361;-85
2023/03/20 09:23:46;;;;;;;;;1.00;1.00;;;;;;;;6335866;22;45417;-85
2023/03/20 09:26:11;;;;;;;;;2.00;2.00;;;;;;;;6336216;22;45312;-85
2023/03/20 09:28:36;;;;;;;;;5.67;1.00;;;;;;;;6336370;22;45300;-86
2023/03/20 09:31:01;;;;;;;;;2.33;2.33;;;;;;;;6335449;22;46444;-85
2023/03/20 09:33:27;;;;;;;;;2.00;2.00;;;;;;;;6333979;22;45742;-86
2023/03/20 09:35:53;;;;;;;;;4.75;2.50;;;;;;;;6335472;22;45216;-86
2023/03/20 09:38:18;;;;;;;;;6.00;1.00;;;;;;;;6335208;22;45248;-86
2023/03/20 09:40:50;;;;;;;;;4.00;2.33;;;;;;;;6334803;22;47088;-85
2023/03/20 09:43:15;;;;;;;;;1.00;1.00;;;;;;;;6335420;22;45299;-85
2023/03/20 09:45:50;;;;;;;;;6.67;1.00;;;;;;;;6335690;22;45379;-85
2023/03/20 09:48:15;;;;;;;;;3.00;3.00;;;;;;;;6335873;22;45217;-85
2023/03/20 09:50:45;;;;;;;;;2.00;1.67;;;;;;;;6335400;22;46454;-85
2023/03/20 09:53:11;;;;;;;;;2.00;1.00;;;;;;;;6333035;22;45446;-86
2023/03/20 09:55:38;;;;;;;;;3.50;1.00;;;;;;;;6335469;22;45282;-86
2023/03/20 09:58:17;;;;;;;;;2.00;1.00;;;;;;;;6333708;22;45267;-85
2023/03/20 10:00:44;;;;;;;;;3.50;2.00;;;;;;;;6334845;22;46523;-84
2023/03/20 10:03:17;;;;;;;;;3.50;0.00;;;;;;;;6335454;22;45603;-86
2023/03/20 10:05:58;;;;;;;;;1.25;0.00;;;;;;;;6335963;22;45263;-86
2023/03/20 10:08:26;;;;;;;;;2.50;1.00;;;;;;;;6334935;22;45422;-85
2023/03/20 10:10:57;;;;;;;;;2.00;1.00;;;;;;;;6336401;22;46194;-83
2023/03/20 10:13:26;;;;;;;;;0.50;0.50;;;;;;;;6335046;22;45569;-85
2023/03/20 10:15:54;;;;;;;;;1.00;0.75;;;;;;;;6334354;22;45252;-84
2023/03/20 10:18:19;;;;;;;;;1.50;0.25;;;;;;;;6336210;22;45506;-84
2023/03/20 10:20:54;;;;;;;;;2.50;0.00;;;;;;;;6336322;22;46865;-85
2023/03/20 10:23:25;;;;;;;;;2.50;1.00;;;;;;;;6336460;22;45652;-85
2023/03/20 10:25:55;;;;;;;;;2.50;1.00;;;;;;;;6336720;22;45367;-84
2023/03/20 10:28:29;;;;;;;;;2.75;0.25;;;;;;;;6337126;22;45299;-85
2023/03/20 10:31:12;;;;;;;;;1.00;1.00;;;;;;;;6336703;22;46208;-84
2023/03/20 10:33:53;;;;;;;;;1.75;1.00;;;;;;;;6336328;22;45235;-85
2023/03/20 10:36:21;;;;;;;;;0.50;0.25;;;;;;;;6334700;22;45336;-84
2023/03/20 10:38:46;;;;;;;;;2.00;2.00;;;;;;;;6336640;22;45406;-85
2023/03/20 10:41:15;;;;;;;;;2.00;1.00;;;;;;;;6335027;22;47496;-85
2023/03/20 10:43:41;;;;;;;;;2.50;1.00;;;;;;;;6334830;22;45704;-84
2023/03/20 10:46:12;;;;;;;;;0.00;0.00;;;;;;;;6336650;22;45378;-84
2023/03/20 10:48:48;;;;;;;;;1.50;1.00;;;;;;;;6336782;22;45283;-84
2023/03/20 10:51:15;;;;;;;;;1.75;1.75;;;;;;;;6336032;22;46406;-86
2023/03/20 10:53:46;;;;;;;;;0.75;0.25;;;;;;;;6336379;22;45783;-85
2023/03/20 10:56:14;;;;;;;;;2.00;1.00;;;;;;;;6335058;22;45308;-85
2023/03/20 10:58:40;;;;;;;;;2.25;2.00;;;;;;;;6331599;22;45289;-84
2023/03/20 11:01:06;;;;;;;;;2.75;1.00;;;;;;;;6335386;22;45679;-83
2023/03/20 11:03:33;;;;;;;;;3.00;2.00;;;;;;;;6329783;22;45717;-84
2023/03/20 11:06:00;;;;;;;;;0.75;0.75;;;;;;;;6334707;22;45422;-83
2023/03/20 11:08:30;;;;;;;;;2.75;1.25;;;;;;;;6333953;22;45828;-84
2023/03/20 11:10:59;;;;;;;;;17.25;12.00;;;;;;;;6334723;22;45453;-84
2023/03/20 11:13:28;;;;;;;;;3.75;1.00;;;;;;;;6328384;22;45652;-86
2023/03/20 11:15:54;;;;;;;;;0.00;0.00;;;;;;;;6335212;22;45473;-85
2023/03/20 11:18:22;;;;;;;;;1.00;1.00;;;;;;;;6335300;22;45686;-83
2023/03/20 11:20:55;;;;;;;;;5.75;1.00;;;;;;;;6334400;22;45460;-85
2023/03/20 11:23:32;;;;;;;;;3.25;2.00;;;;;;;;6335745;22;45277;-83
2023/03/20 11:25:58;;;;;;;;;2.25;0.75;;;;;;;;6335653;22;45350;-85
2023/03/20 11:28:26;;;;;;;;;0.50;0.50;;;;;;;;6333916;22;45468;-83
2023/03/20 11:30:57;;;;;;;;;0.50;0.50;;;;;;;;6335213;22;46564;-86
2023/03/20 11:33:25;;;;;;;;;1.00;1.00;;;;;;;;6334999;22;45338;-85
2023/03/20 11:35:51;;;;;;;;;2.00;1.00;;;;;;;;6335602;22;45292;-84
2023/03/20 11:38:19;;;;;;;;;1.00;1.00;;;;;;;;6336004;22;45287;-86
2023/03/20 11:40:47;;;;;;;;;3.75;1.25;;;;;;;;6335431;22;45342;-85
2023/03/20 11:43:14;;;;;;;;;5.25;1.00;;;;;;;;6335200;22;45366;-84
2023/03/20 11:45:39;;;;;;;;;2.00;1.00;;;;;;;;6333945;22;45340;-84
2023/03/20 11:48:05;;;;;;;;;1.00;1.00;;;;;;;;6333359;22;45364;-84
2023/03/20 11:50:30;;;;;;;;;1.50;1.25;;;;;;;;6335421;22;46116;-83
2023/03/20 11:52:56;;;;;;;;;3.00;1.00;;;;;;;;6335464;22;45464;-85
2023/03/20 11:55:32;;;;;;;;;2.75;1.00;;;;;;;;6335883;22;45234;-87
2023/03/20 11:57:58;;;;;;;;;2.00;1.00;;;;;;;;6335503;22;45321;-84
2023/03/20 12:00:25;;;;;;;;;1.00;1.00;;;;;;;;6333346;22;46213;-84
2023/03/20 12:02:50;;;;;;;;;3.00;1.25;;;;;;;;6330889;22;45658;-85
2023/03/20 12:05:28;;;;;;;;;2.75;2.00;;;;;;;;6332049;22;45363;-84
2023/03/20 12:07:57;;;;;;;;;2.00;1.00;;;;;;;;6333653;22;45508;-84
2023/03/20 12:10:25;;;;;;;;;2.50;2.00;;;;;;;;6334835;22;47311;-84
2023/03/20 12:12:53;;;;;;;;;1.75;1.00;;;;;;;;6334820;22;45288;-84
2023/03/20 12:15:30;;;;;;;;;3.25;2.00;;;;;;;;6335261;22;45275;-84
2023/03/20 12:18:09;;;;;;;;;1.00;1.00;;;;;;;;6334690;22;45737;-84
2023/03/20 12:20:35;;;;;;;;;5.00;1.00;;;;;;;;6334951;22;46554;-84
2023/03/20 12:23:05;;;;;;;;;3.00;1.00;;;;;;;;6334839;22;45350;-84
2023/03/20 12:25:36;;;;;;;;;4.00;1.75;;;;;;;;6333413;22;45380;-84
2023/03/20 12:28:10;;;;;;;;;3.00;2.00;;;;;;;;6335230;22;45559;-85
2023/03/20 12:30:48;;;;;;;;;5.00;1.50;;;;;;;;6333133;22;47559;-84
2023/03/20 12:33:25;;;;;;;;;2.00;2.00;;;;;;;;6334081;22;45678;-84
2023/03/20 12:35:52;;;;;;;;;3.75;2.00;;;;;;;;6335024;22;45343;-84
2023/03/20 12:38:17;;;;;;;;;5.00;1.75;;;;;;;;6335089;22;45300;-84
2023/03/20 12:40:44;;;;;;;;;1.50;1.00;;;;;;;;6334787;22;46885;-84
2023/03/20 12:43:09;;;;;;;;;6.50;1.50;;;;;;;;6335060;22;45675;-85
2023/03/20 12:45:40;;;;;;;;;4.33;2.00;;;;;;;;6329604;22;45371;-84
2023/03/20 12:48:05;;;;;;;;;1.00;1.00;;;;;;;;6335394;22;45743;-84
2023/03/20 12:50:35;;;;;;;;;1.25;1.25;;;;;;;;6333173;22;47158;-83
2023/03/20 12:53:18;;;;;;;;;1.00;1.00;;;;;;;;6334837;22;45339;-83
2023/03/20 12:55:50;;;;;;;;;3.25;2.00;;;;;;;;6333490;22;45656;-83
2023/03/20 12:58:31;;;;;;;;;4.25;2.00;;;;;;;;6333153;22;45383;-83
2023/03/20 13:00:56;;;;;;;;;2.00;0.75;;;;;;;;6333760;22;46005;-82
2023/03/20 13:03:40;;;;;;;;;0.25;0.00;;;;;;;;6335510;22;45436;-83
2023/03/20 13:06:13;;;;;;;;;6.00;1.50;;;;;;;;6335780;22;45238;-83
2023/03/20 13:08:44;;;;;;;;;2.50;0.75;;;;;;;;6335483;22;45403;-84
2023/03/20 13:11:10;;;;;;;;;2.00;1.00;;;;;;;;6335384;22;46173;-83
2023/03/20 13:13:41;;;;;;;;;1.25;1.25;;;;;;;;6335153;22;45301;-84
2023/03/20 13:16:10;;;;;;;;;7.00;1.25;;;;;;;;6333459;22;45508;-84
2023/03/20 13:18:44;;;;;;;;;1.00;1.00;;;;;;;;6335819;22;45436;-84
2023/03/20 13:21:13;;;;;;;;;1.00;1.00;;;;;;;;6333877;22;48399;-84
2023/03/20 13:24:00;;;;;;;;;6.00;1.00;;;;;;;;6335355;22;45416;-84
2023/03/20 13:26:29;;;;;;;;;2.50;1.25;;;;;;;;6335588;22;45253;-83
2023/03/20 13:28:54;;;;;;;;;0.50;0.50;;;;;;;;6335462;22;45264;-84
2023/03/20 13:31:20;;;;;;;;;1.00;1.00;;;;;;;;6334820;22;45616;-84
2023/03/20 13:33:45;;;;;;;;;2.25;1.75;;;;;;;;6335068;22;45064;-84
2023/03/20 13:36:29;;;;;;;;;2.50;1.50;;;;;;;;6333719;22;45219;-83
2023/03/20 13:39:14;;;;;;;;;2.00;1.00;;;;;;;;6335184;22;45488;-84
2023/03/20 13:41:40;;;;;;;;;2.50;2.00;;;;;;;;6312464;22;45308;-84
2023/03/20 13:44:08;;;;;;;;;1.50;1.50;;;;;;;;6335139;22;45189;-84
2023/03/20 13:46:40;;;;;;;;;3.25;1.75;;;;;;;;6336724;22;45209;-84
2023/03/20 13:49:11;;;;;;;;;2.75;1.75;;;;;;;;6337286;22;45477;-84
2023/03/20 13:51:39;;;;;;;;;2.00;2.00;;;;;;;;6336337;22;45531;-84
2023/03/20 13:54:26;;;;;;;;;1.50;1.00;;;;;;;;6334787;22;45606;-84
2023/03/20 13:56:51;;;;;;;;;4.50;1.50;;;;;;;;6336936;22;45298;-84
2023/03/20 13:59:32;;;;;;;;;5.00;1.00;;;;;;;;6336186;22;45353;-84
2023/03/20 14:02:06;;;;;;;;;1.00;1.00;;;;;;;;6336977;22;45563;-84
2023/03/20 14:04:32;;;;;;;;;1.00;1.00;;;;;;;;6337185;22;45622;-85
2023/03/20 14:06:58;;;;;;;;;5.25;2.00;;;;;;;;6336927;22;45372;-84
2023/03/20 14:09:25;;;;;;;;;1.00;1.00;;;;;;;;6336667;22;45236;-84
2023/03/20 14:11:52;;;;;;;;;3.25;2.00;;;;;;;;6334754;22;47591;-84
2023/03/20 14:14:28;;;;;;;;;1.00;1.00;;;;;;;;6336056;22;45244;-84
2023/03/20 14:17:07;;;;;;;;;1.50;1.00;;;;;;;;6336749;22;45238;-84
2023/03/20 14:19:33;;;;;;;;;4.25;2.75;;;;;;;;6334891;22;45298;-84
2023/03/20 14:21:59;;;;;;;;;2.00;1.00;;;;;;;;6334886;22;47046;-85
2023/03/20 14:24:26;;;;;;;;;2.25;1.00;;;;;;;;6336654;22;45470;-83
2023/03/20 14:26:59;;;;;;;;;1.00;1.00;;;;;;;;6337044;22;45155;-84
2023/03/20 14:29:27;;;;;;;;;1.25;1.00;;;;;;;;6334648;22;45252;-84
2023/03/20 14:32:01;;;;;;;;;1.00;1.00;;;;;;;;6336196;22;47516;-84
2023/03/20 14:34:26;;;;;;;;;3.00;1.75;;;;;;;;6334654;22;45800;-84
2023/03/20 14:37:04;;;;;;;;;1.50;1.50;;;;;;;;6336067;22;45241;-84